Rolla, North Dakota
Current Conditions -  °F | °C
As of 3:35 PM on Thursday 18 Dec 2014 (Local Time) from K06D Reporting Station
Haze Haze  
Wind Chill: -15°   Ceiling: 400
Heat Index: -8°   Visibility: 3mi
Dew Point: -8°   Wind: 12mph
Humidity: 100%   Direction: 180°S
Pressure: 30.04"   Gusts: NA
Location:  48.86°N, 99.62°W
Report Text: K06D 182135Z AUTO 18010KT 3SM BR OVC004 M08/M08 A3004 RMK AO2
Loading
Personal Weather Stations






























Interactive Weather Map New forecast layout! Learn more

10-Day Weather Forecast

Advertisements
Track Severe Weather on mobile